createdAt,value
2023-02-21T00:00:17.743Z,64.43
2023-02-21T00:02:39.464Z,64.74
2023-02-21T00:05:00.321Z,64.74
2023-02-21T00:07:20.650Z,64.85
2023-02-21T00:09:40.993Z,64.78
2023-02-21T00:12:01.337Z,64.96
2023-02-21T00:14:21.621Z,64.78
2023-02-21T00:16:43.206Z,65.03
2023-02-21T00:19:03.363Z,65.27
2023-02-21T00:21:24.644Z,65.42
2023-02-21T00:23:45.035Z,65.53
2023-02-21T00:26:05.110Z,65.58
2023-02-21T00:28:25.323Z,65.51
2023-02-21T00:30:45.704Z,65.67
2023-02-21T00:33:07.696Z,65.34
2023-02-21T00:35:28.203Z,65.90
2023-02-21T00:37:49.022Z,65.90
2023-02-21T00:40:09.572Z,65.84
2023-02-21T00:42:29.681Z,65.98
2023-02-21T00:44:50.388Z,65.95
2023-02-21T00:47:11.095Z,66.31
2023-02-21T00:49:32.800Z,66.02
2023-02-21T00:51:53.258Z,66.22
2023-02-21T00:54:13.983Z,66.36
2023-02-21T00:56:34.077Z,66.64
2023-02-21T00:58:54.414Z,66.47
2023-02-21T01:01:15.193Z,66.76
2023-02-21T01:03:36.067Z,66.60
2023-02-21T01:05:57.807Z,66.24
2023-02-21T01:08:18.532Z,66.33
2023-02-21T01:10:39.218Z,66.57
2023-02-21T01:12:59.944Z,66.26
2023-02-21T01:15:20.291Z,66.48
2023-02-21T01:17:40.851Z,66.66
2023-02-21T01:20:02.094Z,66.43
2023-02-21T01:22:24.694Z,65.90
2023-02-21T01:24:48.038Z,66.24
2023-02-21T01:27:08.512Z,66.22
2023-02-21T01:29:29.291Z,66.75
2023-02-21T01:31:49.721Z,66.87
2023-02-21T01:34:10.271Z,66.46
2023-02-21T01:36:30.437Z,67.17
2023-02-21T01:38:53.250Z,66.85
2023-02-21T01:41:13.539Z,66.98
2023-02-21T01:43:34.766Z,66.86
2023-02-21T01:46:12.073Z,67.22
2023-02-21T01:48:37.739Z,66.96
2023-02-21T01:50:58.317Z,67.04
2023-02-21T01:53:20.809Z,66.92
2023-02-21T01:55:42.502Z,66.94
2023-02-21T01:58:04.778Z,66.73
2023-02-21T02:00:28.692Z,66.91
2023-02-21T02:02:55.436Z,67.38
2023-02-21T02:05:17.327Z,67.58
2023-02-21T02:07:38.754Z,68.03
2023-02-21T02:09:58.992Z,68.49
2023-02-21T02:12:25.774Z,68.47
2023-02-21T02:14:49.609Z,68.51
2023-02-21T02:17:00.085Z,68.52
2023-02-21T02:19:31.063Z,68.50
2023-02-21T02:22:15.670Z,68.58
2023-02-21T02:24:59.264Z,68.89
2023-02-21T02:27:41.808Z,69.08
2023-02-21T02:30:11.706Z,68.56
2023-02-21T02:32:32.146Z,68.57
2023-02-21T02:35:00.705Z,68.81
2023-02-21T02:37:11.795Z,68.90
2023-02-21T02:39:25.309Z,69.06
2023-02-21T02:41:43.445Z,68.93
2023-02-21T02:43:55.445Z,68.18
2023-02-21T02:46:06.607Z,67.87
2023-02-21T02:48:16.230Z,68.38
2023-02-21T02:50:22.292Z,68.69
2023-02-21T02:52:27.780Z,68.51
2023-02-21T02:54:30.924Z,68.90
2023-02-21T02:56:36.759Z,69.37
2023-02-21T02:58:43.562Z,68.90
2023-02-21T03:00:51.534Z,69.13
2023-02-21T03:03:07.976Z,69.12
2023-02-21T03:05:38.143Z,68.78
2023-02-21T03:07:51.652Z,69.12
2023-02-21T03:10:02.344Z,69.42
2023-02-21T03:12:13.434Z,68.85
2023-02-21T03:14:19.695Z,68.94
2023-02-21T03:16:27.560Z,68.91
2023-02-21T03:18:37.053Z,69.19
2023-02-21T03:20:43.493Z,69.04
2023-02-21T03:22:47.668Z,69.24
2023-02-21T03:24:52.014Z,69.68
2023-02-21T03:26:58.754Z,69.64
2023-02-21T03:29:22.490Z,69.87
2023-02-21T03:31:31.081Z,69.64
2023-02-21T03:33:34.750Z,70.01
2023-02-21T03:35:37.616Z,70.05
2023-02-21T03:37:43.717Z,69.55
2023-02-21T03:39:46.517Z,69.91
2023-02-21T03:41:49.500Z,69.50
2023-02-21T03:43:52.406Z,70.27
2023-02-21T03:45:55.445Z,69.66
2023-02-21T03:47:58.299Z,69.85
2023-02-21T03:50:01.703Z,70.01
2023-02-21T03:52:05.091Z,69.97
2023-02-21T03:54:09.263Z,69.98
2023-02-21T03:56:17.536Z,70.50
2023-02-21T03:58:33.555Z,69.85
2023-02-21T04:00:36.549Z,69.74
2023-02-21T04:02:39.387Z,70.25
2023-02-21T04:04:42.317Z,69.89
2023-02-21T04:06:49.482Z,69.93
2023-02-21T04:08:52.451Z,69.74
2023-02-21T04:10:57.723Z,70.19
2023-02-21T04:13:04.418Z,69.93
2023-02-21T04:15:12.897Z,69.79
2023-02-21T04:17:17.189Z,69.80
2023-02-21T04:19:20.677Z,69.70
2023-02-21T04:21:23.729Z,70.02
2023-02-21T04:23:29.806Z,69.39
2023-02-21T04:25:32.665Z,69.92
2023-02-21T04:27:41.353Z,70.14
2023-02-21T04:29:44.208Z,69.74
2023-02-21T04:31:47.084Z,70.33
2023-02-21T04:34:02.431Z,69.94
2023-02-21T04:36:12.928Z,69.93
2023-02-21T04:38:18.477Z,69.94
2023-02-21T04:40:21.315Z,69.92
2023-02-21T04:42:24.146Z,70.45
2023-02-21T04:44:28.279Z,70.63
2023-02-21T04:46:31.166Z,70.31
2023-02-21T04:48:34.152Z,70.14
2023-02-21T04:50:37.028Z,69.78
2023-02-21T04:52:40.982Z,69.40
2023-02-21T04:54:43.768Z,69.84
2023-02-21T04:56:46.744Z,70.33
2023-02-21T04:58:49.953Z,70.27
2023-02-21T05:00:54.467Z,70.73
2023-02-21T05:02:57.284Z,70.81
2023-02-21T05:05:00.118Z,70.96
2023-02-21T05:07:03.180Z,70.95
2023-02-21T05:09:05.993Z,70.89
2023-02-21T05:11:08.816Z,71.28
2023-02-21T05:13:11.610Z,71.65
2023-02-21T05:15:15.686Z,71.64
2023-02-21T05:17:19.946Z,70.79
2023-02-21T05:19:28.052Z,71.19
2023-02-21T05:21:30.801Z,71.08
2023-02-21T05:23:39.827Z,71.35
2023-02-21T05:25:42.622Z,71.32
2023-02-21T05:27:45.419Z,71.25
2023-02-21T05:29:49.481Z,71.06
2023-02-21T05:31:52.567Z,71.08
2023-02-21T05:33:56.852Z,71.35
2023-02-21T05:36:00.478Z,71.20
2023-02-21T05:38:03.334Z,71.10
2023-02-21T05:40:06.841Z,71.24
2023-02-21T05:42:09.824Z,70.94
2023-02-21T05:44:12.666Z,71.00
2023-02-21T05:46:23.982Z,71.23
2023-02-21T05:48:26.888Z,71.27
2023-02-21T05:50:31.458Z,70.88
2023-02-21T05:52:34.296Z,71.15
2023-02-21T05:54:37.113Z,71.19
2023-02-21T05:56:40.298Z,71.25
2023-02-21T05:58:43.468Z,71.29
2023-02-21T06:00:46.190Z,71.40
2023-02-21T06:02:48.965Z,71.41
2023-02-21T06:04:51.777Z,71.64
2023-02-21T06:06:55.968Z,71.29
2023-02-21T06:08:58.769Z,71.42
2023-02-21T06:11:01.565Z,71.82
2023-02-21T06:13:04.363Z,71.87
2023-02-21T06:15:08.661Z,71.62
2023-02-21T06:17:11.461Z,72.13
2023-02-21T06:19:16.712Z,72.32
2023-02-21T06:21:19.639Z,71.65
2023-02-21T06:23:23.717Z,71.72
2023-02-21T06:25:26.655Z,71.76
2023-02-21T06:27:29.662Z,71.63
2023-02-21T06:29:32.675Z,72.02
2023-02-21T06:31:36.313Z,71.83
2023-02-21T06:33:39.221Z,72.11
2023-02-21T06:35:42.024Z,71.97
2023-02-21T06:37:44.834Z,71.90
2023-02-21T06:39:49.021Z,71.78
2023-02-21T06:41:53.201Z,71.84
2023-02-21T06:43:57.222Z,71.65
2023-02-21T06:46:00.063Z,71.78
2023-02-21T06:48:03.130Z,71.26
2023-02-21T06:50:09.890Z,71.66
2023-02-21T06:52:13.209Z,71.98
2023-02-21T06:54:17.063Z,71.90
2023-02-21T06:56:21.272Z,71.81
2023-02-21T06:58:24.030Z,71.93
2023-02-21T07:00:26.845Z,71.89
2023-02-21T07:02:29.645Z,71.63
2023-02-21T07:04:32.580Z,71.98
2023-02-21T07:06:35.394Z,72.04
2023-02-21T07:08:38.206Z,72.35
2023-02-21T07:10:41.031Z,72.25
2023-02-21T07:12:45.205Z,72.48
2023-02-21T07:14:48.044Z,72.14
2023-02-21T07:16:51.286Z,72.29
2023-02-21T07:18:54.673Z,72.34
2023-02-21T07:20:57.606Z,72.29
2023-02-21T07:23:00.595Z,72.05
2023-02-21T07:25:03.434Z,72.08
2023-02-21T07:27:06.297Z,72.47
2023-02-21T07:29:10.553Z,72.18
2023-02-21T07:31:13.802Z,72.48
2023-02-21T07:33:17.029Z,72.58
2023-02-21T07:35:19.772Z,72.21
2023-02-21T07:37:22.586Z,72.33
2023-02-21T07:39:25.472Z,72.36
2023-02-21T07:41:28.266Z,72.10
2023-02-21T07:43:32.687Z,72.05
2023-02-21T07:45:36.889Z,71.95
2023-02-21T07:47:39.935Z,72.27
2023-02-21T07:49:42.677Z,72.42
2023-02-21T07:51:45.516Z,72.29
2023-02-21T07:53:48.493Z,71.92
2023-02-21T07:55:51.288Z,72.37
2023-02-21T07:57:54.192Z,72.23
2023-02-21T07:59:57.004Z,72.08
2023-02-21T08:02:01.614Z,72.75
2023-02-21T08:04:04.753Z,72.61
2023-02-21T08:06:09.170Z,72.45
2023-02-21T08:08:12.178Z,72.55
2023-02-21T08:10:21.716Z,71.89
2023-02-21T08:12:24.572Z,72.13
2023-02-21T08:14:27.943Z,71.72
2023-02-21T08:16:32.176Z,71.81
2023-02-21T08:18:38.054Z,72.30
2023-02-21T08:20:40.836Z,72.23
2023-02-21T08:22:43.716Z,71.58
2023-02-21T08:24:47.140Z,71.15
2023-02-21T08:26:49.966Z,71.17
2023-02-21T08:28:52.733Z,70.79
2023-02-21T08:30:55.518Z,70.58
2023-02-21T08:32:58.393Z,70.19
2023-02-21T08:35:03.563Z,70.08
2023-02-21T08:37:20.188Z,70.38
2023-02-21T08:39:23.082Z,70.36
2023-02-21T08:41:26.444Z,69.89
2023-02-21T08:43:29.603Z,69.90
2023-02-21T08:45:33.058Z,69.70
2023-02-21T08:47:36.659Z,69.24
2023-02-21T08:49:42.504Z,69.21
2023-02-21T08:51:47.501Z,69.68
2023-02-21T08:53:50.314Z,69.57
2023-02-21T08:55:53.087Z,69.55
2023-02-21T08:57:56.001Z,69.73
2023-02-21T08:59:58.863Z,69.30
2023-02-21T09:02:02.146Z,69.13
2023-02-21T09:04:06.282Z,69.16
2023-02-21T09:06:09.674Z,68.85
2023-02-21T09:08:15.073Z,69.21
2023-02-21T09:10:19.448Z,69.18
2023-02-21T09:12:22.288Z,69.03
2023-02-21T09:14:25.112Z,69.00
2023-02-21T09:16:28.034Z,68.72
2023-02-21T09:18:32.423Z,68.28
2023-02-21T09:20:35.359Z,67.91
2023-02-21T09:22:38.152Z,67.69
2023-02-21T09:24:42.694Z,68.12
2023-02-21T09:26:47.133Z,67.99
2023-02-21T09:28:49.954Z,67.97
2023-02-21T09:30:52.822Z,67.50
2023-02-21T09:32:56.239Z,67.02
2023-02-21T09:34:59.537Z,67.04
2023-02-21T09:37:05.845Z,66.65
2023-02-21T09:39:08.869Z,65.99
2023-02-21T09:41:15.636Z,66.01
2023-02-21T09:43:22.089Z,65.90
2023-02-21T09:45:29.619Z,65.40
2023-02-21T09:47:38.203Z,65.28
2023-02-21T09:49:43.429Z,65.17
2023-02-21T09:51:46.776Z,64.61
2023-02-21T09:53:49.682Z,64.58
2023-02-21T09:55:55.896Z,64.75
2023-02-21T09:58:00.629Z,64.88
2023-02-21T10:00:07.237Z,64.11
2023-02-21T10:02:29.598Z,64.02
2023-02-21T10:04:46.422Z,62.68
2023-02-21T10:06:53.827Z,62.98
2023-02-21T10:09:02.144Z,62.62
2023-02-21T10:11:23.298Z,62.25
2023-02-21T10:13:39.329Z,61.57
2023-02-21T10:15:49.964Z,61.41
2023-02-21T10:17:58.429Z,61.85
2023-02-21T10:20:05.457Z,61.52
2023-02-21T10:22:17.025Z,60.47
2023-02-21T10:24:22.219Z,61.03
2023-02-21T10:26:29.150Z,61.13
2023-02-21T10:28:34.500Z,60.91
2023-02-21T10:30:40.978Z,58.49
2023-02-21T10:32:44.074Z,58.77
2023-02-21T10:34:49.249Z,59.26
2023-02-21T10:36:53.212Z,59.48
2023-02-21T10:38:59.286Z,59.30
2023-02-21T10:41:05.442Z,59.12
2023-02-21T10:43:12.100Z,58.66
2023-02-21T10:45:19.320Z,57.59
2023-02-21T10:47:27.322Z,58.22
2023-02-21T10:49:34.022Z,57.82
2023-02-21T10:51:36.889Z,57.10
2023-02-21T10:53:42.334Z,56.68
2023-02-21T10:55:47.417Z,57.34
2023-02-21T10:57:56.335Z,57.36
2023-02-21T10:59:59.623Z,57.79
2023-02-21T11:02:24.956Z,57.04
2023-02-21T11:04:31.966Z,56.70
2023-02-21T11:06:38.296Z,56.06
2023-02-21T11:08:43.336Z,56.29
2023-02-21T11:10:46.296Z,56.40
2023-02-21T11:13:03.102Z,56.63
2023-02-21T11:15:18.851Z,56.64
2023-02-21T11:17:24.518Z,56.71
2023-02-21T11:19:27.398Z,56.38
2023-02-21T11:21:30.402Z,56.30
2023-02-21T11:23:33.294Z,56.22
2023-02-21T11:25:41.017Z,56.34
2023-02-21T11:27:46.390Z,56.22
2023-02-21T11:29:52.670Z,55.77
2023-02-21T11:31:56.674Z,55.07
2023-02-21T11:34:05.149Z,55.49
2023-02-21T11:36:13.864Z,55.25
2023-02-21T11:38:35.905Z,54.28
2023-02-21T11:40:44.006Z,54.58
2023-02-21T11:42:46.856Z,54.68
2023-02-21T11:45:04.890Z,54.46
2023-02-21T11:47:16.528Z,54.66
2023-02-21T11:49:31.064Z,54.45
2023-02-21T11:51:42.374Z,53.67
2023-02-21T11:53:45.214Z,54.52
2023-02-21T11:55:58.153Z,52.94
2023-02-21T11:58:13.326Z,53.48
2023-02-21T12:00:24.884Z,53.36
2023-02-21T12:02:56.270Z,53.38
2023-02-21T12:05:15.198Z,53.00
2023-02-21T12:07:25.390Z,53.77
2023-02-21T12:09:37.525Z,53.50
2023-02-21T12:11:52.702Z,52.67
2023-02-21T12:13:59.652Z,53.06
2023-02-21T12:16:12.745Z,53.04
2023-02-21T12:18:48.362Z,53.17
2023-02-21T12:21:14.193Z,52.91
2023-02-21T12:23:24.945Z,52.93
2023-02-21T12:25:33.190Z,53.50
2023-02-21T12:27:50.301Z,53.21
2023-02-21T12:30:12.895Z,52.43
2023-02-21T12:32:40.770Z,52.63
2023-02-21T12:35:00.330Z,53.32
2023-02-21T12:37:19.797Z,52.73
2023-02-21T12:39:34.086Z,52.55
2023-02-21T12:42:08.724Z,52.57
2023-02-21T12:44:14.982Z,52.36
2023-02-21T12:46:26.035Z,52.63
2023-02-21T12:48:34.208Z,53.11
2023-02-21T12:50:41.312Z,51.97
2023-02-21T12:52:54.777Z,52.41
2023-02-21T12:55:02.788Z,51.70
2023-02-21T12:57:10.611Z,52.38
2023-02-21T12:59:21.444Z,52.97
2023-02-21T13:01:29.053Z,52.30
2023-02-21T13:03:43.782Z,51.53
2023-02-21T13:05:49.745Z,51.58
2023-02-21T13:08:01.193Z,50.35
2023-02-21T13:10:07.467Z,51.81
2023-02-21T13:12:14.927Z,51.80
2023-02-21T13:14:21.421Z,51.11
2023-02-21T13:16:25.535Z,51.79
2023-02-21T13:18:33.099Z,51.02
2023-02-21T13:20:41.064Z,51.79
2023-02-21T13:23:39.906Z,51.86
2023-02-21T13:26:00.025Z,51.88
2023-02-21T13:28:08.040Z,51.68
2023-02-21T13:30:15.045Z,50.98
2023-02-21T13:32:21.010Z,51.36
2023-02-21T13:34:27.012Z,50.71
2023-02-21T13:36:32.585Z,50.48
2023-02-21T13:38:35.675Z,50.24
2023-02-21T13:40:43.777Z,49.03
2023-02-21T13:42:48.306Z,50.18
2023-02-21T13:44:54.675Z,49.91
2023-02-21T13:47:08.050Z,49.05
2023-02-21T13:49:48.159Z,50.00
2023-02-21T13:51:53.072Z,50.25
2023-02-21T13:54:11.442Z,49.72
2023-02-21T13:56:18.906Z,49.58
2023-02-21T13:58:35.525Z,50.03
2023-02-21T14:00:50.856Z,49.40
2023-02-21T14:02:56.311Z,49.86
2023-02-21T14:05:02.990Z,49.57
2023-02-21T14:07:05.862Z,49.31
2023-02-21T14:09:14.314Z,48.71
2023-02-21T14:11:22.493Z,48.65
2023-02-21T14:13:34.764Z,48.46
2023-02-21T14:15:41.258Z,48.51
2023-02-21T14:17:48.738Z,48.63
2023-02-21T14:19:54.750Z,49.50
2023-02-21T14:22:03.889Z,49.88
2023-02-21T14:24:14.375Z,49.27
2023-02-21T14:26:40.157Z,48.57
2023-02-21T14:29:13.327Z,49.08
2023-02-21T14:31:16.463Z,49.06
2023-02-21T14:33:23.552Z,49.05
2023-02-21T14:35:32.932Z,48.75
2023-02-21T14:37:39.679Z,48.76
2023-02-21T14:39:45.833Z,49.11
2023-02-21T14:42:01.602Z,49.05
2023-02-21T14:44:20.746Z,48.77
2023-02-21T14:46:45.899Z,48.64
2023-02-21T14:49:02.865Z,49.01
2023-02-21T14:51:43.247Z,49.85
2023-02-21T14:54:06.111Z,49.35
2023-02-21T14:56:51.610Z,48.86
2023-02-21T14:59:19.296Z,49.61
2023-02-21T15:01:39.895Z,49.10
2023-02-21T15:03:47.460Z,48.59
2023-02-21T15:06:03.206Z,48.50
2023-02-21T15:08:13.309Z,48.82
2023-02-21T15:10:19.730Z,47.98
2023-02-21T15:12:23.474Z,49.59
2023-02-21T15:14:29.989Z,48.42
2023-02-21T15:16:33.414Z,49.13
2023-02-21T15:18:38.474Z,49.00
2023-02-21T15:21:07.375Z,48.62
2023-02-21T15:23:15.442Z,48.52
2023-02-21T15:25:21.965Z,48.81
2023-02-21T15:27:24.808Z,49.08
2023-02-21T15:29:29.002Z,48.74
2023-02-21T15:31:34.998Z,48.95
2023-02-21T15:33:40.302Z,48.23
2023-02-21T15:35:47.847Z,48.42
2023-02-21T15:37:50.951Z,48.27
2023-02-21T15:39:56.557Z,47.98
2023-02-21T15:42:00.381Z,47.44
2023-02-21T15:44:08.872Z,48.47
2023-02-21T15:46:17.804Z,48.67
2023-02-21T15:48:21.178Z,47.57
2023-02-21T15:50:34.269Z,47.34
2023-02-21T15:52:39.279Z,47.41
2023-02-21T15:54:42.125Z,47.85
2023-02-21T15:56:45.708Z,46.94
2023-02-21T15:59:19.548Z,47.72
2023-02-21T16:01:23.738Z,47.09
2023-02-21T16:03:33.190Z,48.02
2023-02-21T16:05:36.560Z,47.95
2023-02-21T16:07:41.145Z,47.88
2023-02-21T16:09:48.224Z,48.39
2023-02-21T16:11:55.193Z,47.78
2023-02-21T16:13:58.049Z,47.55
2023-02-21T16:16:01.429Z,47.48
2023-02-21T16:18:09.038Z,47.74
2023-02-21T16:20:17.928Z,48.09
2023-02-21T16:22:29.260Z,48.26
2023-02-21T16:24:33.606Z,48.10
2023-02-21T16:26:36.410Z,47.89
2023-02-21T16:28:41.003Z,48.04
2023-02-21T16:30:43.696Z,48.15
2023-02-21T16:32:48.752Z,48.38
2023-02-21T16:34:54.779Z,48.19
2023-02-21T16:37:03.992Z,48.37
2023-02-21T16:39:06.762Z,48.80
2023-02-21T16:41:15.958Z,48.62
2023-02-21T16:43:21.347Z,48.42
2023-02-21T16:45:24.975Z,48.46
2023-02-21T16:47:27.817Z,48.80
2023-02-21T16:49:30.742Z,48.86
2023-02-21T16:51:35.976Z,49.02
2023-02-21T16:53:38.795Z,48.96
2023-02-21T16:55:42.594Z,49.27
2023-02-21T16:57:48.994Z,48.63
2023-02-21T16:59:51.919Z,48.85
2023-02-21T17:01:54.682Z,48.71
2023-02-21T17:03:57.709Z,48.76
2023-02-21T17:06:01.749Z,49.22
2023-02-21T17:08:06.079Z,49.35
2023-02-21T17:10:10.053Z,48.99
2023-02-21T17:12:14.019Z,49.37
2023-02-21T17:14:17.268Z,49.38
2023-02-21T17:16:20.599Z,49.58
2023-02-21T17:18:24.228Z,49.70
2023-02-21T17:20:28.193Z,50.00
2023-02-21T17:22:31.030Z,50.34
2023-02-21T17:24:35.147Z,50.48
2023-02-21T17:26:38.136Z,50.34
2023-02-21T17:28:40.915Z,50.36
2023-02-21T17:30:43.761Z,50.27
2023-02-21T17:32:47.641Z,50.35
2023-02-21T17:34:50.441Z,50.35
2023-02-21T17:36:53.509Z,50.46
2023-02-21T17:38:58.901Z,50.37
2023-02-21T17:41:04.134Z,50.59
2023-02-21T17:43:08.683Z,50.79
2023-02-21T17:45:12.054Z,51.10
2023-02-21T17:47:15.169Z,51.52
2023-02-21T17:49:19.008Z,51.57
2023-02-21T17:51:24.391Z,51.98
2023-02-21T17:53:28.154Z,51.52
2023-02-21T17:55:32.190Z,51.64
2023-02-21T17:57:38.028Z,52.01
2023-02-21T17:59:40.961Z,51.69
2023-02-21T18:01:44.122Z,52.02
2023-02-21T18:03:47.829Z,52.01
2023-02-21T18:05:50.599Z,52.25
2023-02-21T18:07:54.703Z,52.22
2023-02-21T18:09:57.817Z,52.07
2023-02-21T18:12:01.168Z,52.35
2023-02-21T18:14:06.336Z,51.71
2023-02-21T18:16:11.591Z,52.19
2023-02-21T18:18:14.461Z,52.18
2023-02-21T18:20:18.045Z,52.22
2023-02-21T18:22:20.822Z,51.99
2023-02-21T18:24:23.832Z,52.02
2023-02-21T18:26:26.576Z,52.16
2023-02-21T18:28:30.631Z,52.55
2023-02-21T18:30:34.797Z,52.26
2023-02-21T18:32:37.620Z,52.45
2023-02-21T18:34:40.476Z,52.38
2023-02-21T18:36:49.326Z,52.43
2023-02-21T18:38:52.061Z,52.78
2023-02-21T18:40:55.121Z,52.42
2023-02-21T18:42:57.894Z,52.47
2023-02-21T18:45:00.667Z,52.89
2023-02-21T18:47:04.944Z,53.02
2023-02-21T18:49:08.378Z,52.85
2023-02-21T18:51:12.479Z,53.19
2023-02-21T18:53:16.298Z,53.04
2023-02-21T18:55:19.770Z,52.78
2023-02-21T18:57:24.108Z,52.61
2023-02-21T18:59:27.146Z,52.68
2023-02-21T19:01:30.000Z,52.75
2023-02-21T19:03:34.241Z,52.82
2023-02-21T19:05:37.278Z,52.96
2023-02-21T19:07:40.068Z,52.57
2023-02-21T19:09:42.847Z,52.44
2023-02-21T19:11:45.683Z,52.53
2023-02-21T19:13:50.280Z,53.20
2023-02-21T19:15:53.122Z,53.26
2023-02-21T19:17:55.921Z,52.57
2023-02-21T19:20:00.276Z,52.61
2023-02-21T19:22:03.082Z,52.95
2023-02-21T19:24:06.176Z,53.32
2023-02-21T19:26:09.629Z,53.53
2023-02-21T19:28:12.442Z,53.30
2023-02-21T19:30:19.345Z,53.36
2023-02-21T19:32:23.242Z,53.40
2023-02-21T19:34:26.247Z,53.83
2023-02-21T19:36:30.428Z,54.97
2023-02-21T19:38:33.264Z,55.11
2023-02-21T19:40:37.387Z,54.72
2023-02-21T19:42:40.369Z,54.71
2023-02-21T19:44:43.254Z,54.68
2023-02-21T19:46:46.282Z,55.36
2023-02-21T19:48:49.566Z,55.19
2023-02-21T19:50:52.345Z,55.34
2023-02-21T19:52:58.332Z,55.67
2023-02-21T19:55:01.140Z,54.89
2023-02-21T19:57:04.022Z,55.98
2023-02-21T19:59:07.017Z,55.96
2023-02-21T20:01:10.077Z,55.85
2023-02-21T20:03:12.824Z,56.13
2023-02-21T20:05:16.384Z,55.91
2023-02-21T20:07:20.605Z,56.74
2023-02-21T20:09:24.915Z,56.34
2023-02-21T20:11:27.745Z,55.96
2023-02-21T20:13:30.514Z,55.95
2023-02-21T20:15:35.065Z,56.50
2023-02-21T20:17:39.187Z,57.41
2023-02-21T20:19:42.302Z,57.02
2023-02-21T20:21:45.835Z,57.32
2023-02-21T20:23:48.912Z,57.41
2023-02-21T20:25:53.071Z,57.37
2023-02-21T20:27:56.016Z,57.73
2023-02-21T20:29:58.836Z,57.92
2023-02-21T20:32:03.878Z,57.31
2023-02-21T20:34:06.902Z,57.96
2023-02-21T20:36:10.595Z,57.67
2023-02-21T20:38:13.480Z,58.54
2023-02-21T20:40:17.168Z,58.45
2023-02-21T20:42:22.717Z,58.79
2023-02-21T20:44:26.048Z,59.10
2023-02-21T20:46:29.734Z,59.25
2023-02-21T20:48:32.722Z,58.90
2023-02-21T20:50:35.769Z,58.93
2023-02-21T20:52:40.385Z,59.28
2023-02-21T20:54:45.255Z,59.30
2023-02-21T20:56:49.782Z,59.48
2023-02-21T20:58:54.668Z,59.38
2023-02-21T21:00:57.541Z,59.39
2023-02-21T21:03:00.499Z,59.77
2023-02-21T21:05:09.096Z,60.10
2023-02-21T21:07:13.822Z,60.06
2023-02-21T21:09:17.910Z,60.59
2023-02-21T21:11:21.881Z,61.24
2023-02-21T21:13:24.999Z,61.65
2023-02-21T21:15:29.091Z,62.33
2023-02-21T21:17:32.013Z,62.47
2023-02-21T21:19:35.150Z,62.40
2023-02-21T21:21:38.438Z,63.03
2023-02-21T21:23:41.180Z,63.46
2023-02-21T21:25:44.079Z,63.79
2023-02-21T21:27:47.393Z,63.91
2023-02-21T21:29:50.548Z,63.99
2023-02-21T21:31:55.651Z,64.12
2023-02-21T21:33:58.512Z,64.39
2023-02-21T21:36:01.718Z,64.27
2023-02-21T21:38:07.141Z,64.44
2023-02-21T21:40:16.739Z,64.35
2023-02-21T21:42:19.607Z,64.68
2023-02-21T21:44:23.324Z,64.44
2023-02-21T21:46:26.200Z,64.49
2023-02-21T21:48:30.900Z,64.47
2023-02-21T21:50:33.723Z,64.65
2023-02-21T21:52:36.555Z,64.70
2023-02-21T21:54:41.113Z,64.80
2023-02-21T21:56:43.912Z,65.02
2023-02-21T21:58:46.686Z,64.72
2023-02-21T22:00:50.237Z,64.60
2023-02-21T22:02:57.085Z,64.70
2023-02-21T22:05:01.413Z,64.85
2023-02-21T22:07:05.075Z,64.92
2023-02-21T22:09:09.608Z,65.00
2023-02-21T22:11:12.575Z,64.94
2023-02-21T22:13:20.506Z,65.02
2023-02-21T22:15:25.214Z,65.27
2023-02-21T22:17:27.989Z,65.06
2023-02-21T22:19:30.860Z,65.12
2023-02-21T22:21:36.131Z,65.58
2023-02-21T22:23:41.381Z,65.81
2023-02-21T22:25:44.129Z,65.58
2023-02-21T22:27:47.178Z,65.97
2023-02-21T22:29:50.391Z,65.75
2023-02-21T22:31:53.188Z,65.80
2023-02-21T22:33:59.196Z,65.81
2023-02-21T22:36:03.681Z,65.66
2023-02-21T22:38:14.027Z,65.43
2023-02-21T22:40:24.079Z,65.15
2023-02-21T22:42:27.186Z,65.28
2023-02-21T22:44:29.907Z,65.39
2023-02-21T22:46:41.094Z,65.70
2023-02-21T22:48:45.059Z,65.30
2023-02-21T22:50:47.851Z,65.35
2023-02-21T22:52:51.814Z,65.10
2023-02-21T22:54:55.923Z,65.72
2023-02-21T22:57:01.741Z,65.25
2023-02-21T22:59:07.923Z,65.75
2023-02-21T23:01:10.688Z,65.60
2023-02-21T23:03:13.975Z,65.58
2023-02-21T23:05:19.526Z,65.51
2023-02-21T23:07:24.483Z,65.44
2023-02-21T23:09:27.707Z,66.15
2023-02-21T23:11:31.805Z,66.21
2023-02-21T23:13:35.679Z,65.85
2023-02-21T23:15:38.552Z,65.86
2023-02-21T23:17:43.028Z,66.21
2023-02-21T23:19:45.822Z,65.94
2023-02-21T23:21:50.268Z,66.12
2023-02-21T23:23:53.045Z,65.99
2023-02-21T23:25:59.460Z,67.06
2023-02-21T23:28:06.128Z,66.79
2023-02-21T23:30:10.180Z,67.08
2023-02-21T23:32:13.019Z,67.04
2023-02-21T23:34:15.864Z,67.03
2023-02-21T23:36:22.433Z,66.86
2023-02-21T23:38:27.949Z,67.17
2023-02-21T23:40:31.068Z,67.51
2023-02-21T23:42:33.797Z,67.49
2023-02-21T23:44:37.928Z,67.60
2023-02-21T23:46:42.965Z,67.83
2023-02-21T23:48:46.017Z,67.86
2023-02-21T23:50:49.507Z,67.77
2023-02-21T23:52:54.233Z,68.25
2023-02-21T23:54:56.997Z,67.97
2023-02-21T23:57:00.467Z,67.89
2023-02-21T23:59:05.927Z,67.99
